Disney Wonder — C6QM8 — position and weather

sailwx.info

Track history (hours):
 
Tides and Currents Weather Stations Pressure Air Temp Water Temp Dewpoint Dewpoint Depression Visibility Wind Speed Wind Dir Waves Ship Positions

Disney Wonder

Last reported at 2018-Nov-10 22:55 UTC. Time now 2018-Nov-14 03:16 UTC.
Position N 20°35' W 086°57'.

Length 301 m; draft 8.2 m.

Type: Passenger vessel. MMSI: 308457000.

Date/timePositionNaut miles runAvg speedWind from/ knotsBaromVisibWave heightAir tempDewpointWater temp
2018-Nov-10 22:55N 20°35' W 086°57'410.3
2018-Nov-10 22:32N 20°31' W 086°57'0 0.3
2018-Nov-10 22:01N 20°31' W 086°57'0 0.0
2018-Nov-10 21:31N 20°31' W 086°57'0 0.0
2018-Nov-10 21:01N 20°31' W 086°57'0 0.0
2018-Nov-10 20:31N 20°31' W 086°57'0 0.0
2018-Nov-10 20:01N 20°31' W 086°57'0 0.0
2018-Nov-10 19:31N 20°31' W 086°57'0 0.0
2018-Nov-10 19:01N 20°31' W 086°57'0 0.0
2018-Nov-10 18:31N 20°31' W 086°57'0 0.0
2018-Nov-10 18:01N 20°31' W 086°57'0 0.0
2018-Nov-10 17:31N 20°31' W 086°57'0 0.0
2018-Nov-10 17:01N 20°31' W 086°57'0 0.0
2018-Nov-10 16:31N 20°31' W 086°57'0 0.0
2018-Nov-10 16:01N 20°31' W 086°57'0 0.0
2018-Nov-10 15:31N 20°31' W 086°57'0 0.0
2018-Nov-10 15:01N 20°31' W 086°57'0 0.0
2018-Nov-10 14:31N 20°31' W 086°57'0 0.0
2018-Nov-10 14:01N 20°31' W 086°57'0 0.0
2018-Nov-10 13:31N 20°31' W 086°57'0 0.0
2018-Nov-10 13:01N 20°31' W 086°57'0 0.8
2018-Nov-10 12:32N 20°31' W 086°57'65818.2
2018-Nov-09 00:26N 29°09' W 094°25'1417.7
2018-Nov-08 23:40N 29°17' W 094°37'512.6
2018-Nov-08 23:18N 29°20' W 094°41'413.3
2018-Nov-08 23:02N 29°21' W 094°45'3 6.4
2018-Nov-08 22:32N 29°19' W 094°48'0 0.0
2018-Nov-08 22:02N 29°19' W 094°48'0 0.0
2018-Nov-08 21:32N 29°19' W 094°48'0 0.0
2018-Nov-08 21:02N 29°19' W 094°48'0 0.0
2018-Nov-08 20:32N 29°19' W 094°48'0 0.0
2018-Nov-08 20:02N 29°19' W 094°48'0 0.0
2018-Nov-08 19:32N 29°19' W 094°48'0 0.0
2018-Nov-08 19:02N 29°19' W 094°48'0 0.0
2018-Nov-08 18:32N 29°19' W 094°48'0 0.0
2018-Nov-08 18:02N 29°19' W 094°48'0 0.0
2018-Nov-08 17:32N 29°19' W 094°48'0 0.0
2018-Nov-08 17:02N 29°19' W 094°48'0 0.0
2018-Nov-08 16:32N 29°19' W 094°48'0 0.0
2018-Nov-08 16:02N 29°19' W 094°48'0 0.0
2018-Nov-08 15:32N 29°19' W 094°48'0 0.0
2018-Nov-08 15:02N 29°19' W 094°48'0 0.0
2018-Nov-08 14:32N 29°19' W 094°48'0 0.0
2018-Nov-08 14:02N 29°19' W 094°48'0 0.0
2018-Nov-08 13:32N 29°19' W 094°48'0 0.0
2018-Nov-08 12:59N 29°19' W 094°48'0 0.0
2018-Nov-08 12:32N 29°19' W 094°48'1 2.6
2018-Nov-08 12:02N 29°19' W 094°47'3 5.9
2018-Nov-08 11:32N 29°21' W 094°44'713.5
2018-Nov-08 11:02N 29°18' W 094°36'5 9.7
2018-Nov-08 10:31N 29°15' W 094°32'4 6.5
2018-Nov-08 09:52N 29°13' W 094°28'3 8.2
2018-Nov-08 09:30N 29°11' W 094°25'  
2018-Nov-04 22:07N 20°36' W 086°54'121.8
2018-Nov-04 22:03N 20°35' W 086°55'119.4
2018-Nov-04 22:00N 20°34' W 086°56'4 8.1
2018-Nov-04 21:30N 20°31' W 086°57'0 0.0
2018-Nov-04 21:02N 20°31' W 086°57'0 0.0
2018-Nov-04 20:59N 20°31' W 086°57'0 0.0
2018-Nov-04 20:29N 20°31' W 086°57'0 0.0
2018-Nov-04 20:02N 20°31' W 086°57'0 0.0
2018-Nov-04 19:59N 20°31' W 086°57'0 0.0
2018-Nov-04 19:29N 20°31' W 086°57'0 0.0
2018-Nov-04 18:53N 20°31' W 086°57'0 0.0
2018-Nov-04 18:29N 20°31' W 086°57'0 0.0
2018-Nov-04 18:02N 20°31' W 086°57'0 0.0
2018-Nov-04 17:59N 20°31' W 086°57'0 0.0
2018-Nov-04 17:29N 20°31' W 086°57'0 0.0
2018-Nov-04 16:59N 20°31' W 086°57'0 0.0
2018-Nov-04 16:29N 20°31' W 086°57'0 0.0
2018-Nov-04 16:02N 20°31' W 086°57'0 0.0
2018-Nov-04 15:59N 20°31' W 086°57'0 0.0
2018-Nov-04 15:26N 20°31' W 086°57'0 0.0
2018-Nov-04 15:02N 20°31' W 086°57'0 0.0
2018-Nov-04 14:59N 20°31' W 086°57'0 0.0
2018-Nov-04 14:29N 20°31' W 086°57'0 0.0
2018-Nov-04 14:02N 20°31' W 086°57'0 0.0
2018-Nov-04 13:59N 20°31' W 086°57'0 0.0
2018-Nov-04 13:29N 20°31' W 086°57'0 0.0
2018-Nov-04 13:02N 20°31' W 086°57'0 0.0
2018-Nov-04 12:56N 20°31' W 086°57'0 1.1
2018-Nov-04 12:30N 20°31' W 086°57'4 8.5
2018-Nov-04 12:03N 20°35' W 086°57'111.0
2018-Nov-04 12:00N 20°35' W 086°57'67117.9
2018-Nov-02 22:36N 29°19' W 094°39'213.9
2018-Nov-02 22:27N 29°20' W 094°41'511.1
2018-Nov-02 22:00N 29°19' W 094°47'1 2.4
2018-Nov-02 21:25N 29°19' W 094°48'0 0.0
2018-Nov-02 20:58N 29°19' W 094°48'0 0.0
2018-Nov-02 20:28N 29°19' W 094°48'0 0.0
2018-Nov-02 20:01N 29°19' W 094°48'0 0.0
2018-Nov-02 19:52N 29°19' W 094°48'0 0.0
2018-Nov-02 19:25N 29°19' W 094°48'0 0.0
2018-Nov-02 19:01N 29°19' W 094°48'0 0.0
2018-Nov-02 18:58N 29°19' W 094°48'0 0.0
2018-Nov-02 18:28N 29°19' W 094°48'0 0.0
2018-Nov-02 18:01N 29°19' W 094°48'0 0.0
2018-Nov-02 17:58N 29°19' W 094°48'0 0.0
2018-Nov-02 17:28N 29°19' W 094°48'0 0.0
2018-Nov-02 17:01N 29°19' W 094°48'0 0.0
2018-Nov-02 16:55N 29°19' W 094°48'0 0.0
2018-Nov-02 16:28N 29°19' W 094°48'0 0.0
2018-Nov-02 16:01N 29°19' W 094°48'0 0.0
2018-Nov-02 15:58N 29°19' W 094°48'0 0.0
2018-Nov-02 15:28N 29°19' W 094°48'0 0.0
2018-Nov-02 15:01N 29°19' W 094°48'0 0.0
2018-Nov-02 14:58N 29°19' W 094°48'0 0.0
2018-Nov-02 14:28N 29°19' W 094°48'0 0.0
2018-Nov-02 13:58N 29°19' W 094°48'0 0.0
2018-Nov-02 13:28N 29°19' W 094°48'0 0.0
2018-Nov-02 13:01N 29°19' W 094°48'0 0.0
2018-Nov-02 12:58N 29°19' W 094°48'0 0.0
2018-Nov-02 12:28N 29°19' W 094°48'0 0.0
2018-Nov-02 12:01N 29°19' W 094°48'0 0.0
2018-Nov-02 11:58N 29°19' W 094°48'0 0.0
2018-Nov-02 11:30N 29°19' W 094°48'1 2.4
2018-Nov-02 11:03N 29°19' W 094°47'0 2.5
2018-Nov-02 11:00N 29°19' W 094°47'3 6.0
2018-Nov-02 10:30N 29°21' W 094°44'613.8
2018-Nov-02 10:03N 29°19' W 094°37'113.9
2018-Nov-02 09:59N 29°18' W 094°36'  
Track history (hours):
 
Tides and Currents Weather Stations Pressure Air Temp Water Temp Dewpoint Dewpoint Depression Visibility Wind Speed Wind Dir Waves Ship Positions

Disney Wonder

Last reported at 2018-Nov-10 22:55 UTC. Time now 2018-Nov-14 03:16 UTC.
Position N 20°35' W 086°57'.

Length 301 m; draft 8.2 m.

Type: Passenger vessel. MMSI: 308457000.

Date/timePositionNaut miles runAvg speedWind from/ knotsBaromVisibWave heightAir tempDewpointWater temp
2018-Nov-10 22:55N 20°35' W 086°57'410.3
2018-Nov-10 22:32N 20°31' W 086°57'0 0.3
2018-Nov-10 22:01N 20°31' W 086°57'0 0.0
2018-Nov-10 21:31N 20°31' W 086°57'0 0.0
2018-Nov-10 21:01N 20°31' W 086°57'0 0.0
2018-Nov-10 20:31N 20°31' W 086°57'0 0.0
2018-Nov-10 20:01N 20°31' W 086°57'0 0.0
2018-Nov-10 19:31N 20°31' W 086°57'0 0.0
2018-Nov-10 19:01N 20°31' W 086°57'0 0.0
2018-Nov-10 18:31N 20°31' W 086°57'0 0.0
2018-Nov-10 18:01N 20°31' W 086°57'0 0.0
2018-Nov-10 17:31N 20°31' W 086°57'0 0.0
2018-Nov-10 17:01N 20°31' W 086°57'0 0.0
2018-Nov-10 16:31N 20°31' W 086°57'0 0.0
2018-Nov-10 16:01N 20°31' W 086°57'0 0.0
2018-Nov-10 15:31N 20°31' W 086°57'0 0.0
2018-Nov-10 15:01N 20°31' W 086°57'0 0.0
2018-Nov-10 14:31N 20°31' W 086°57'0 0.0
2018-Nov-10 14:01N 20°31' W 086°57'0 0.0
2018-Nov-10 13:31N 20°31' W 086°57'0 0.0
2018-Nov-10 13:01N 20°31' W 086°57'0 0.8
2018-Nov-10 12:32N 20°31' W 086°57'65818.2
2018-Nov-09 00:26N 29°09' W 094°25'1417.7
2018-Nov-08 23:40N 29°17' W 094°37'512.6
2018-Nov-08 23:18N 29°20' W 094°41'413.3
2018-Nov-08 23:02N 29°21' W 094°45'3 6.4
2018-Nov-08 22:32N 29°19' W 094°48'0 0.0
2018-Nov-08 22:02N 29°19' W 094°48'0 0.0
2018-Nov-08 21:32N 29°19' W 094°48'0 0.0
2018-Nov-08 21:02N 29°19' W 094°48'0 0.0
2018-Nov-08 20:32N 29°19' W 094°48'0 0.0
2018-Nov-08 20:02N 29°19' W 094°48'0 0.0
2018-Nov-08 19:32N 29°19' W 094°48'0 0.0
2018-Nov-08 19:02N 29°19' W 094°48'0 0.0
2018-Nov-08 18:32N 29°19' W 094°48'0 0.0
2018-Nov-08 18:02N 29°19' W 094°48'0 0.0
2018-Nov-08 17:32N 29°19' W 094°48'0 0.0
2018-Nov-08 17:02N 29°19' W 094°48'0 0.0
2018-Nov-08 16:32N 29°19' W 094°48'0 0.0
2018-Nov-08 16:02N 29°19' W 094°48'0 0.0
2018-Nov-08 15:32N 29°19' W 094°48'0 0.0
2018-Nov-08 15:02N 29°19' W 094°48'0 0.0
2018-Nov-08 14:32N 29°19' W 094°48'0 0.0
2018-Nov-08 14:02N 29°19' W 094°48'0 0.0
2018-Nov-08 13:32N 29°19' W 094°48'0 0.0
2018-Nov-08 12:59N 29°19' W 094°48'0 0.0
2018-Nov-08 12:32N 29°19' W 094°48'1 2.6
2018-Nov-08 12:02N 29°19' W 094°47'3 5.9
2018-Nov-08 11:32N 29°21' W 094°44'713.5
2018-Nov-08 11:02N 29°18' W 094°36'5 9.7
2018-Nov-08 10:31N 29°15' W 094°32'4 6.5
2018-Nov-08 09:52N 29°13' W 094°28'3 8.2
2018-Nov-08 09:30N 29°11' W 094°25'  
2018-Nov-04 22:07N 20°36' W 086°54'121.8
2018-Nov-04 22:03N 20°35' W 086°55'119.4
2018-Nov-04 22:00N 20°34' W 086°56'4 8.1
2018-Nov-04 21:30N 20°31' W 086°57'0 0.0
2018-Nov-04 21:02N 20°31' W 086°57'0 0.0
2018-Nov-04 20:59N 20°31' W 086°57'0 0.0
2018-Nov-04 20:29N 20°31' W 086°57'0 0.0
2018-Nov-04 20:02N 20°31' W 086°57'0 0.0
2018-Nov-04 19:59N 20°31' W 086°57'0 0.0
2018-Nov-04 19:29N 20°31' W 086°57'0 0.0
2018-Nov-04 18:53N 20°31' W 086°57'0 0.0
2018-Nov-04 18:29N 20°31' W 086°57'0 0.0
2018-Nov-04 18:02N 20°31' W 086°57'0 0.0
2018-Nov-04 17:59N 20°31' W 086°57'0 0.0
2018-Nov-04 17:29N 20°31' W 086°57'0 0.0
2018-Nov-04 16:59N 20°31' W 086°57'0 0.0
2018-Nov-04 16:29N 20°31' W 086°57'0 0.0
2018-Nov-04 16:02N 20°31' W 086°57'0 0.0
2018-Nov-04 15:59N 20°31' W 086°57'0 0.0
2018-Nov-04 15:26N 20°31' W 086°57'0 0.0
2018-Nov-04 15:02N 20°31' W 086°57'0 0.0
2018-Nov-04 14:59N 20°31' W 086°57'0 0.0
2018-Nov-04 14:29N 20°31' W 086°57'0 0.0
2018-Nov-04 14:02N 20°31' W 086°57'0 0.0
2018-Nov-04 13:59N 20°31' W 086°57'0 0.0
2018-Nov-04 13:29N 20°31' W 086°57'0 0.0
2018-Nov-04 13:02N 20°31' W 086°57'0 0.0
2018-Nov-04 12:56N 20°31' W 086°57'0 1.1
2018-Nov-04 12:30N 20°31' W 086°57'4 8.5
2018-Nov-04 12:03N 20°35' W 086°57'111.0
2018-Nov-04 12:00N 20°35' W 086°57'67117.9
2018-Nov-02 22:36N 29°19' W 094°39'213.9
2018-Nov-02 22:27N 29°20' W 094°41'511.1
2018-Nov-02 22:00N 29°19' W 094°47'1 2.4
2018-Nov-02 21:25N 29°19' W 094°48'0 0.0
2018-Nov-02 20:58N 29°19' W 094°48'0 0.0
2018-Nov-02 20:28N 29°19' W 094°48'0 0.0
2018-Nov-02 20:01N 29°19' W 094°48'0 0.0
2018-Nov-02 19:52N 29°19' W 094°48'0 0.0
2018-Nov-02 19:25N 29°19' W 094°48'0 0.0
2018-Nov-02 19:01N 29°19' W 094°48'0 0.0
2018-Nov-02 18:58N 29°19' W 094°48'0 0.0
2018-Nov-02 18:28N 29°19' W 094°48'0 0.0
2018-Nov-02 18:01N 29°19' W 094°48'0 0.0
2018-Nov-02 17:58N 29°19' W 094°48'0 0.0
2018-Nov-02 17:28N 29°19' W 094°48'0 0.0
2018-Nov-02 17:01N 29°19' W 094°48'0 0.0
2018-Nov-02 16:55N 29°19' W 094°48'0 0.0
2018-Nov-02 16:28N 29°19' W 094°48'0 0.0
2018-Nov-02 16:01N 29°19' W 094°48'0 0.0
2018-Nov-02 15:58N 29°19' W 094°48'0 0.0
2018-Nov-02 15:28N 29°19' W 094°48'0 0.0
2018-Nov-02 15:01N 29°19' W 094°48'0 0.0
2018-Nov-02 14:58N 29°19' W 094°48'0 0.0
2018-Nov-02 14:28N 29°19' W 094°48'0 0.0
2018-Nov-02 13:58N 29°19' W 094°48'0 0.0
2018-Nov-02 13:28N 29°19' W 094°48'0 0.0
2018-Nov-02 13:01N 29°19' W 094°48'0 0.0
2018-Nov-02 12:58N 29°19' W 094°48'0 0.0
2018-Nov-02 12:28N 29°19' W 094°48'0 0.0
2018-Nov-02 12:01N 29°19' W 094°48'0 0.0
2018-Nov-02 11:58N 29°19' W 094°48'0 0.0
2018-Nov-02 11:30N 29°19' W 094°48'1 2.4
2018-Nov-02 11:03N 29°19' W 094°47'0 2.5
2018-Nov-02 11:00N 29°19' W 094°47'3 6.0
2018-Nov-02 10:30N 29°21' W 094°44'613.8
2018-Nov-02 10:03N 29°19' W 094°37'113.9
2018-Nov-02 09:59N 29°18' W 094°36'  

Dump ship's entire track history